sensor_id;sensor_type;location;lat;lon;timestamp;temperature;humidity
27797;DHT22;15177;50.844;4.412;2023-04-24T00:01:49;11.20;99.90
27797;DHT22;15177;50.844;4.412;2023-04-24T00:04:15;11.10;99.90
27797;DHT22;15177;50.844;4.412;2023-04-24T00:06:42;11.10;99.90
27797;DHT22;15177;50.844;4.412;2023-04-24T00:09:11;11.10;99.90
27797;DHT22;15177;50.844;4.412;2023-04-24T00:11:37;11.10;99.90
27797;DHT22;15177;50.844;4.412;2023-04-24T00:14:03;11.10;99.90
27797;DHT22;15177;50.844;4.412;2023-04-24T00:16:28;11.10;99.90
27797;DHT22;15177;50.844;4.412;2023-04-24T00:18:54;11.10;99.90
27797;DHT22;15177;50.844;4.412;2023-04-24T00:21:21;11.10;99.90
27797;DHT22;15177;50.844;4.412;2023-04-24T00:23:50;11.10;99.90
27797;DHT22;15177;50.844;4.412;2023-04-24T00:26:16;11.10;99.90
27797;DHT22;15177;50.844;4.412;2023-04-24T00:28:42;11.10;99.90
27797;DHT22;15177;50.844;4.412;2023-04-24T00:31:09;11.00;99.90
27797;DHT22;15177;50.844;4.412;2023-04-24T00:33:34;11.00;99.90
27797;DHT22;15177;50.844;4.412;2023-04-24T00:36:00;11.00;99.90
27797;DHT22;15177;50.844;4.412;2023-04-24T00:38:26;11.00;99.90
27797;DHT22;15177;50.844;4.412;2023-04-24T00:40:51;11.00;99.90
27797;DHT22;15177;50.844;4.412;2023-04-24T00:43:17;11.00;99.90
27797;DHT22;15177;50.844;4.412;2023-04-24T00:45:43;11.00;99.90
27797;DHT22;15177;50.844;4.412;2023-04-24T00:48:09;10.90;99.90
27797;DHT22;15177;50.844;4.412;2023-04-24T00:50:36;10.90;99.90
27797;DHT22;15177;50.844;4.412;2023-04-24T00:53:01;10.90;99.90
27797;DHT22;15177;50.844;4.412;2023-04-24T00:55:27;10.90;99.90
27797;DHT22;15177;50.844;4.412;2023-04-24T00:57:53;10.90;99.90
27797;DHT22;15177;50.844;4.412;2023-04-24T01:00:19;10.80;99.90
27797;DHT22;15177;50.844;4.412;2023-04-24T01:02:45;10.80;99.90
27797;DHT22;15177;50.844;4.412;2023-04-24T01:05:12;10.80;99.90
27797;DHT22;15177;50.844;4.412;2023-04-24T01:07:39;10.80;99.90
27797;DHT22;15177;50.844;4.412;2023-04-24T01:10:07;10.80;99.90
27797;DHT22;15177;50.844;4.412;2023-04-24T01:12:33;10.80;99.90
27797;DHT22;15177;50.844;4.412;2023-04-24T01:14:59;10.80;99.90
27797;DHT22;15177;50.844;4.412;2023-04-24T01:17:25;10.90;99.90
27797;DHT22;15177;50.844;4.412;2023-04-24T01:19:51;10.90;99.90
27797;DHT22;15177;50.844;4.412;2023-04-24T01:22:19;10.80;99.90
27797;DHT22;15177;50.844;4.412;2023-04-24T01:24:46;10.60;99.90
27797;DHT22;15177;50.844;4.412;2023-04-24T01:27:13;10.70;99.90
27797;DHT22;15177;50.844;4.412;2023-04-24T01:29:39;10.60;99.90
27797;DHT22;15177;50.844;4.412;2023-04-24T01:32:05;10.70;99.90
27797;DHT22;15177;50.844;4.412;2023-04-24T01:34:33;10.60;99.90
27797;DHT22;15177;50.844;4.412;2023-04-24T01:37:03;10.60;99.90
27797;DHT22;15177;50.844;4.412;2023-04-24T01:39:28;10.50;99.90
27797;DHT22;15177;50.844;4.412;2023-04-24T01:41:57;10.50;99.90
27797;DHT22;15177;50.844;4.412;2023-04-24T01:44:23;10.50;99.90
27797;DHT22;15177;50.844;4.412;2023-04-24T01:46:49;10.60;99.90
27797;DHT22;15177;50.844;4.412;2023-04-24T01:49:17;10.60;99.90
27797;DHT22;15177;50.844;4.412;2023-04-24T01:51:43;10.60;99.90
27797;DHT22;15177;50.844;4.412;2023-04-24T01:54:09;10.60;99.90
27797;DHT22;15177;50.844;4.412;2023-04-24T01:56:35;10.60;99.90
27797;DHT22;15177;50.844;4.412;2023-04-24T01:59:03;10.60;99.90
27797;DHT22;15177;50.844;4.412;2023-04-24T02:01:34;10.50;99.90
27797;DHT22;15177;50.844;4.412;2023-04-24T02:04:01;10.50;99.90
27797;DHT22;15177;50.844;4.412;2023-04-24T02:06:29;10.50;99.90
27797;DHT22;15177;50.844;4.412;2023-04-24T02:08:57;10.50;99.90
27797;DHT22;15177;50.844;4.412;2023-04-24T02:11:23;10.40;99.90
27797;DHT22;15177;50.844;4.412;2023-04-24T02:13:48;10.40;99.90
27797;DHT22;15177;50.844;4.412;2023-04-24T02:16:15;10.30;99.90
27797;DHT22;15177;50.844;4.412;2023-04-24T02:18:41;10.30;99.90
27797;DHT22;15177;50.844;4.412;2023-04-24T02:21:08;10.30;99.90
27797;DHT22;15177;50.844;4.412;2023-04-24T02:23:35;10.30;99.90
27797;DHT22;15177;50.844;4.412;2023-04-24T02:26:00;10.40;99.90
27797;DHT22;15177;50.844;4.412;2023-04-24T02:28:26;10.30;99.90
27797;DHT22;15177;50.844;4.412;2023-04-24T02:30:53;10.30;99.90
27797;DHT22;15177;50.844;4.412;2023-04-24T02:33:19;10.30;99.90
27797;DHT22;15177;50.844;4.412;2023-04-24T02:35:45;10.30;99.90
27797;DHT22;15177;50.844;4.412;2023-04-24T02:38:10;10.30;99.90
27797;DHT22;15177;50.844;4.412;2023-04-24T02:40:36;10.30;99.90
27797;DHT22;15177;50.844;4.412;2023-04-24T02:43:02;10.30;99.90
27797;DHT22;15177;50.844;4.412;2023-04-24T02:45:27;10.20;99.90
27797;DHT22;15177;50.844;4.412;2023-04-24T02:47:53;10.30;99.90
27797;DHT22;15177;50.844;4.412;2023-04-24T02:50:19;10.30;99.90
27797;DHT22;15177;50.844;4.412;2023-04-24T02:52:44;10.30;99.90
27797;DHT22;15177;50.844;4.412;2023-04-24T02:55:11;10.30;99.90
27797;DHT22;15177;50.844;4.412;2023-04-24T02:57:37;10.30;99.90
27797;DHT22;15177;50.844;4.412;2023-04-24T03:00:03;10.30;99.90
27797;DHT22;15177;50.844;4.412;2023-04-24T03:02:32;10.30;99.90
27797;DHT22;15177;50.844;4.412;2023-04-24T03:04:58;10.30;99.90
27797;DHT22;15177;50.844;4.412;2023-04-24T03:07:23;10.30;99.90
27797;DHT22;15177;50.844;4.412;2023-04-24T03:09:49;10.30;99.90
27797;DHT22;15177;50.844;4.412;2023-04-24T03:12:15;10.30;99.90
27797;DHT22;15177;50.844;4.412;2023-04-24T03:14:43;10.30;99.90
27797;DHT22;15177;50.844;4.412;2023-04-24T03:17:08;10.20;99.90
27797;DHT22;15177;50.844;4.412;2023-04-24T03:19:34;10.20;99.90
27797;DHT22;15177;50.844;4.412;2023-04-24T03:22:02;10.30;99.90
27797;DHT22;15177;50.844;4.412;2023-04-24T03:24:29;10.20;99.90
27797;DHT22;15177;50.844;4.412;2023-04-24T03:26:56;10.20;99.90
27797;DHT22;15177;50.844;4.412;2023-04-24T03:29:22;10.20;99.90
27797;DHT22;15177;50.844;4.412;2023-04-24T03:31:48;10.10;99.90
27797;DHT22;15177;50.844;4.412;2023-04-24T03:34:14;10.10;99.90
27797;DHT22;15177;50.844;4.412;2023-04-24T03:36:39;10.10;99.90
27797;DHT22;15177;50.844;4.412;2023-04-24T03:39:05;10.10;99.90
27797;DHT22;15177;50.844;4.412;2023-04-24T03:41:31;10.10;99.90
27797;DHT22;15177;50.844;4.412;2023-04-24T03:43:56;10.10;99.90
27797;DHT22;15177;50.844;4.412;2023-04-24T03:46:22;10.10;99.90
27797;DHT22;15177;50.844;4.412;2023-04-24T03:48:49;10.20;99.90
27797;DHT22;15177;50.844;4.412;2023-04-24T03:51:15;10.00;99.90
27797;DHT22;15177;50.844;4.412;2023-04-24T03:53:40;10.00;99.90
27797;DHT22;15177;50.844;4.412;2023-04-24T03:56:06;10.00;99.90
27797;DHT22;15177;50.844;4.412;2023-04-24T03:58:31;10.10;99.90
27797;DHT22;15177;50.844;4.412;2023-04-24T04:00:57;10.20;99.90
27797;DHT22;15177;50.844;4.412;2023-04-24T04:03:25;10.20;99.90
27797;DHT22;15177;50.844;4.412;2023-04-24T04:05:52;10.20;99.90
27797;DHT22;15177;50.844;4.412;2023-04-24T04:08:18;10.20;99.90
27797;DHT22;15177;50.844;4.412;2023-04-24T04:10:44;10.30;99.90
27797;DHT22;15177;50.844;4.412;2023-04-24T04:13:09;10.30;99.90
27797;DHT22;15177;50.844;4.412;2023-04-24T04:15:35;10.40;99.90
27797;DHT22;15177;50.844;4.412;2023-04-24T04:18:01;10.50;99.90
27797;DHT22;15177;50.844;4.412;2023-04-24T04:20:27;10.40;99.90
27797;DHT22;15177;50.844;4.412;2023-04-24T04:22:52;10.40;99.90
27797;DHT22;15177;50.844;4.412;2023-04-24T04:25:18;10.40;99.90
27797;DHT22;15177;50.844;4.412;2023-04-24T04:27:45;10.50;99.90
27797;DHT22;15177;50.844;4.412;2023-04-24T04:30:13;10.40;99.90
27797;DHT22;15177;50.844;4.412;2023-04-24T04:32:40;10.40;99.90
27797;DHT22;15177;50.844;4.412;2023-04-24T04:35:06;10.20;99.90
27797;DHT22;15177;50.844;4.412;2023-04-24T04:37:33;10.20;99.90
27797;DHT22;15177;50.844;4.412;2023-04-24T04:39:59;10.00;99.90
27797;DHT22;15177;50.844;4.412;2023-04-24T04:42:26;10.00;99.90
27797;DHT22;15177;50.844;4.412;2023-04-24T04:44:52;9.90;99.90
27797;DHT22;15177;50.844;4.412;2023-04-24T04:47:20;9.90;99.90
27797;DHT22;15177;50.844;4.412;2023-04-24T04:49:47;9.80;99.90
27797;DHT22;15177;50.844;4.412;2023-04-24T04:52:13;9.80;99.90
27797;DHT22;15177;50.844;4.412;2023-04-24T04:54:39;9.90;99.90
27797;DHT22;15177;50.844;4.412;2023-04-24T04:57:05;9.80;99.90
27797;DHT22;15177;50.844;4.412;2023-04-24T04:59:31;9.70;99.90
27797;DHT22;15177;50.844;4.412;2023-04-24T05:01:56;9.70;99.90
27797;DHT22;15177;50.844;4.412;2023-04-24T05:04:23;9.70;99.90
27797;DHT22;15177;50.844;4.412;2023-04-24T05:06:48;9.70;99.90
27797;DHT22;15177;50.844;4.412;2023-04-24T05:09:16;9.70;99.90
27797;DHT22;15177;50.844;4.412;2023-04-24T05:11:42;9.80;99.90
27797;DHT22;15177;50.844;4.412;2023-04-24T05:14:07;9.70;99.90
27797;DHT22;15177;50.844;4.412;2023-04-24T05:16:33;9.70;99.90
27797;DHT22;15177;50.844;4.412;2023-04-24T05:18:59;9.70;99.90
27797;DHT22;15177;50.844;4.412;2023-04-24T05:21:24;9.70;99.90
27797;DHT22;15177;50.844;4.412;2023-04-24T05:23:52;9.70;99.90
27797;DHT22;15177;50.844;4.412;2023-04-24T05:26:17;9.60;99.90
27797;DHT22;15177;50.844;4.412;2023-04-24T05:28:43;9.60;99.90
27797;DHT22;15177;50.844;4.412;2023-04-24T05:31:09;9.60;99.90
27797;DHT22;15177;50.844;4.412;2023-04-24T05:33:35;9.70;99.90
27797;DHT22;15177;50.844;4.412;2023-04-24T05:36:00;9.70;99.90
27797;DHT22;15177;50.844;4.412;2023-04-24T05:38:26;9.70;99.90
27797;DHT22;15177;50.844;4.412;2023-04-24T05:40:52;9.70;99.90
27797;DHT22;15177;50.844;4.412;2023-04-24T05:43:18;9.80;99.90
27797;DHT22;15177;50.844;4.412;2023-04-24T05:45:43;9.90;99.90
27797;DHT22;15177;50.844;4.412;2023-04-24T05:48:09;9.90;99.90
27797;DHT22;15177;50.844;4.412;2023-04-24T05:50:35;9.90;99.90
27797;DHT22;15177;50.844;4.412;2023-04-24T05:53:00;10.00;99.90
27797;DHT22;15177;50.844;4.412;2023-04-24T05:55:27;10.10;99.90
27797;DHT22;15177;50.844;4.412;2023-04-24T05:57:53;10.10;99.90
27797;DHT22;15177;50.844;4.412;2023-04-24T06:00:19;10.10;99.90
27797;DHT22;15177;50.844;4.412;2023-04-24T06:02:46;10.00;99.90
27797;DHT22;15177;50.844;4.412;2023-04-24T06:05:12;10.00;99.90
27797;DHT22;15177;50.844;4.412;2023-04-24T06:07:38;10.00;99.90
27797;DHT22;15177;50.844;4.412;2023-04-24T06:10:04;9.90;99.90
27797;DHT22;15177;50.844;4.412;2023-04-24T06:12:29;9.80;99.90
27797;DHT22;15177;50.844;4.412;2023-04-24T06:14:56;9.70;99.90
27797;DHT22;15177;50.844;4.412;2023-04-24T06:17:22;9.60;99.90
27797;DHT22;15177;50.844;4.412;2023-04-24T06:19:47;9.60;99.90
27797;DHT22;15177;50.844;4.412;2023-04-24T06:22:13;9.70;99.90
27797;DHT22;15177;50.844;4.412;2023-04-24T06:24:42;9.70;99.90
27797;DHT22;15177;50.844;4.412;2023-04-24T06:27:07;9.70;99.90
27797;DHT22;15177;50.844;4.412;2023-04-24T06:29:33;9.70;99.90
27797;DHT22;15177;50.844;4.412;2023-04-24T06:31:59;9.80;99.90
27797;DHT22;15177;50.844;4.412;2023-04-24T06:34:26;9.80;99.90
27797;DHT22;15177;50.844;4.412;2023-04-24T06:36:51;10.00;99.90
27797;DHT22;15177;50.844;4.412;2023-04-24T06:39:17;10.00;99.90
27797;DHT22;15177;50.844;4.412;2023-04-24T06:41:44;10.00;99.90
27797;DHT22;15177;50.844;4.412;2023-04-24T06:44:11;10.00;99.90
27797;DHT22;15177;50.844;4.412;2023-04-24T06:46:36;10.00;99.90
27797;DHT22;15177;50.844;4.412;2023-04-24T06:49:02;9.90;99.90
27797;DHT22;15177;50.844;4.412;2023-04-24T06:51:28;9.90;99.90
27797;DHT22;15177;50.844;4.412;2023-04-24T06:53:54;10.00;99.90
27797;DHT22;15177;50.844;4.412;2023-04-24T06:56:21;10.10;99.90
27797;DHT22;15177;50.844;4.412;2023-04-24T06:58:48;10.30;99.90
27797;DHT22;15177;50.844;4.412;2023-04-24T07:01:13;10.50;99.90
27797;DHT22;15177;50.844;4.412;2023-04-24T07:03:40;10.50;99.90
27797;DHT22;15177;50.844;4.412;2023-04-24T07:06:07;10.60;99.90
27797;DHT22;15177;50.844;4.412;2023-04-24T07:08:33;10.70;99.90
27797;DHT22;15177;50.844;4.412;2023-04-24T07:11:00;10.70;99.90
27797;DHT22;15177;50.844;4.412;2023-04-24T07:13:33;10.60;99.90
27797;DHT22;15177;50.844;4.412;2023-04-24T07:16:00;10.60;99.90
27797;DHT22;15177;50.844;4.412;2023-04-24T07:18:27;10.60;99.90
27797;DHT22;15177;50.844;4.412;2023-04-24T07:20:54;10.40;99.90
27797;DHT22;15177;50.844;4.412;2023-04-24T07:23:20;10.40;99.90
27797;DHT22;15177;50.844;4.412;2023-04-24T07:25:47;10.50;99.90
27797;DHT22;15177;50.844;4.412;2023-04-24T07:28:16;11.00;99.90
27797;DHT22;15177;50.844;4.412;2023-04-24T07:30:44;11.30;99.90
27797;DHT22;15177;50.844;4.412;2023-04-24T07:33:12;11.50;99.90
27797;DHT22;15177;50.844;4.412;2023-04-24T07:35:41;11.40;99.90
27797;DHT22;15177;50.844;4.412;2023-04-24T07:38:09;11.20;99.90
27797;DHT22;15177;50.844;4.412;2023-04-24T07:40:36;11.10;99.90
27797;DHT22;15177;50.844;4.412;2023-04-24T07:43:01;11.10;99.90
27797;DHT22;15177;50.844;4.412;2023-04-24T07:45:27;11.00;99.90
27797;DHT22;15177;50.844;4.412;2023-04-24T07:47:53;11.40;99.90
27797;DHT22;15177;50.844;4.412;2023-04-24T07:50:20;11.50;99.90
27797;DHT22;15177;50.844;4.412;2023-04-24T07:52:46;11.50;99.90
27797;DHT22;15177;50.844;4.412;2023-04-24T07:55:14;11.50;99.90
27797;DHT22;15177;50.844;4.412;2023-04-24T07:57:40;11.30;99.90
27797;DHT22;15177;50.844;4.412;2023-04-24T08:00:06;11.30;99.90
27797;DHT22;15177;50.844;4.412;2023-04-24T08:02:33;11.30;99.90
27797;DHT22;15177;50.844;4.412;2023-04-24T08:05:04;11.40;99.90
27797;DHT22;15177;50.844;4.412;2023-04-24T08:07:30;11.40;99.90
27797;DHT22;15177;50.844;4.412;2023-04-24T08:09:57;11.60;99.90
27797;DHT22;15177;50.844;4.412;2023-04-24T08:12:24;11.70;99.90
27797;DHT22;15177;50.844;4.412;2023-04-24T08:14:50;11.80;99.90
27797;DHT22;15177;50.844;4.412;2023-04-24T08:17:17;11.80;99.90
27797;DHT22;15177;50.844;4.412;2023-04-24T08:19:43;11.50;99.90
27797;DHT22;15177;50.844;4.412;2023-04-24T08:22:16;11.30;99.90
27797;DHT22;15177;50.844;4.412;2023-04-24T08:24:43;11.20;99.90
27797;DHT22;15177;50.844;4.412;2023-04-24T08:27:09;11.10;99.90
27797;DHT22;15177;50.844;4.412;2023-04-24T08:29:36;11.30;99.90
27797;DHT22;15177;50.844;4.412;2023-04-24T08:32:03;11.70;99.90
27797;DHT22;15177;50.844;4.412;2023-04-24T08:34:29;11.90;99.90
27797;DHT22;15177;50.844;4.412;2023-04-24T08:36:55;12.10;99.90
27797;DHT22;15177;50.844;4.412;2023-04-24T08:39:20;12.20;99.90
27797;DHT22;15177;50.844;4.412;2023-04-24T08:41:48;12.20;99.90
27797;DHT22;15177;50.844;4.412;2023-04-24T08:44:14;12.00;99.90
27797;DHT22;15177;50.844;4.412;2023-04-24T08:46:43;12.10;99.90
27797;DHT22;15177;50.844;4.412;2023-04-24T08:49:13;12.10;99.90
27797;DHT22;15177;50.844;4.412;2023-04-24T08:51:42;12.70;99.90
27797;DHT22;15177;50.844;4.412;2023-04-24T08:54:08;14.00;99.90
27797;DHT22;15177;50.844;4.412;2023-04-24T08:56:34;15.80;99.90
27797;DHT22;15177;50.844;4.412;2023-04-24T08:59:05;17.30;99.90
27797;DHT22;15177;50.844;4.412;2023-04-24T09:01:32;18.30;99.90
27797;DHT22;15177;50.844;4.412;2023-04-24T09:04:05;17.80;99.90
27797;DHT22;15177;50.844;4.412;2023-04-24T09:06:35;17.30;99.90
27797;DHT22;15177;50.844;4.412;2023-04-24T09:09:01;17.40;99.90
27797;DHT22;15177;50.844;4.412;2023-04-24T09:11:30;17.50;99.90
27797;DHT22;15177;50.844;4.412;2023-04-24T09:13:56;17.90;99.90
27797;DHT22;15177;50.844;4.412;2023-04-24T09:16:24;18.20;99.90
27797;DHT22;15177;50.844;4.412;2023-04-24T09:18:50;18.00;99.90
27797;DHT22;15177;50.844;4.412;2023-04-24T09:21:19;17.80;99.90
27797;DHT22;15177;50.844;4.412;2023-04-24T09:23:45;17.90;99.90
27797;DHT22;15177;50.844;4.412;2023-04-24T09:26:11;17.80;99.90
27797;DHT22;15177;50.844;4.412;2023-04-24T09:28:39;17.90;99.90
27797;DHT22;15177;50.844;4.412;2023-04-24T09:31:14;16.60;99.90
27797;DHT22;15177;50.844;4.412;2023-04-24T09:33:57;15.60;99.90
27797;DHT22;15177;50.844;4.412;2023-04-24T09:36:36;14.40;99.90
27797;DHT22;15177;50.844;4.412;2023-04-24T09:39:05;14.10;99.90
27797;DHT22;15177;50.844;4.412;2023-04-24T09:41:32;13.60;99.90
27797;DHT22;15177;50.844;4.412;2023-04-24T09:44:10;13.40;99.90
27797;DHT22;15177;50.844;4.412;2023-04-24T09:46:36;13.30;99.90
27797;DHT22;15177;50.844;4.412;2023-04-24T09:49:11;13.20;99.90
27797;DHT22;15177;50.844;4.412;2023-04-24T09:51:37;13.60;99.90
27797;DHT22;15177;50.844;4.412;2023-04-24T09:54:16;14.50;99.90
27797;DHT22;15177;50.844;4.412;2023-04-24T09:56:44;14.80;99.90
27797;DHT22;15177;50.844;4.412;2023-04-24T09:59:10;14.80;99.90
27797;DHT22;15177;50.844;4.412;2023-04-24T10:01:36;14.20;99.90
27797;DHT22;15177;50.844;4.412;2023-04-24T10:04:03;13.80;99.90
27797;DHT22;15177;50.844;4.412;2023-04-24T10:06:36;13.60;99.90
27797;DHT22;15177;50.844;4.412;2023-04-24T10:09:02;13.60;99.90
27797;DHT22;15177;50.844;4.412;2023-04-24T10:11:32;13.80;99.90
27797;DHT22;15177;50.844;4.412;2023-04-24T10:14:00;13.90;99.90
27797;DHT22;15177;50.844;4.412;2023-04-24T10:16:26;13.90;99.90
27797;DHT22;15177;50.844;4.412;2023-04-24T10:18:54;14.20;99.90
27797;DHT22;15177;50.844;4.412;2023-04-24T10:21:20;14.40;99.90
27797;DHT22;15177;50.844;4.412;2023-04-24T10:23:48;13.90;99.90
27797;DHT22;15177;50.844;4.412;2023-04-24T10:26:16;13.80;99.90
27797;DHT22;15177;50.844;4.412;2023-04-24T10:28:46;13.50;99.90
27797;DHT22;15177;50.844;4.412;2023-04-24T10:31:14;13.10;99.90
27797;DHT22;15177;50.844;4.412;2023-04-24T10:33:43;12.80;99.90
27797;DHT22;15177;50.844;4.412;2023-04-24T10:36:11;12.80;99.90
27797;DHT22;15177;50.844;4.412;2023-04-24T10:38:40;13.10;99.90
27797;DHT22;15177;50.844;4.412;2023-04-24T10:41:11;13.40;99.90
27797;DHT22;15177;50.844;4.412;2023-04-24T10:43:46;13.60;99.90
27797;DHT22;15177;50.844;4.412;2023-04-24T10:46:19;13.90;99.90
27797;DHT22;15177;50.844;4.412;2023-04-24T10:48:53;13.90;99.90
27797;DHT22;15177;50.844;4.412;2023-04-24T10:51:22;14.60;99.90
27797;DHT22;15177;50.844;4.412;2023-04-24T10:53:50;15.20;99.90
27797;DHT22;15177;50.844;4.412;2023-04-24T10:56:17;15.00;99.90
27797;DHT22;15177;50.844;4.412;2023-04-24T10:58:49;14.60;99.90
27797;DHT22;15177;50.844;4.412;2023-04-24T11:01:25;14.50;99.90
27797;DHT22;15177;50.844;4.412;2023-04-24T11:03:57;14.30;99.90
27797;DHT22;15177;50.844;4.412;2023-04-24T11:06:31;14.10;99.90
27797;DHT22;15177;50.844;4.412;2023-04-24T11:09:08;14.10;99.90
27797;DHT22;15177;50.844;4.412;2023-04-24T11:11:36;13.70;99.90
27797;DHT22;15177;50.844;4.412;2023-04-24T11:14:04;13.20;99.90
27797;DHT22;15177;50.844;4.412;2023-04-24T11:16:42;12.90;99.90
27797;DHT22;15177;50.844;4.412;2023-04-24T11:21:44;13.00;99.90
27797;DHT22;15177;50.844;4.412;2023-04-24T11:24:49;12.90;99.90
27797;DHT22;15177;50.844;4.412;2023-04-24T11:27:18;12.80;99.90
27797;DHT22;15177;50.844;4.412;2023-04-24T11:32:41;13.20;99.90
27797;DHT22;15177;50.844;4.412;2023-04-24T11:35:21;13.50;99.90
27797;DHT22;15177;50.844;4.412;2023-04-24T11:37:50;13.90;99.90
27797;DHT22;15177;50.844;4.412;2023-04-24T11:40:19;14.20;99.90
27797;DHT22;15177;50.844;4.412;2023-04-24T11:42:50;14.30;99.90
27797;DHT22;15177;50.844;4.412;2023-04-24T11:45:29;14.40;99.90
27797;DHT22;15177;50.844;4.412;2023-04-24T11:47:57;14.50;99.90
27797;DHT22;15177;50.844;4.412;2023-04-24T11:50:25;14.50;99.90
27797;DHT22;15177;50.844;4.412;2023-04-24T11:52:52;14.40;99.90
27797;DHT22;15177;50.844;4.412;2023-04-24T11:57:53;14.30;99.90
27797;DHT22;15177;50.844;4.412;2023-04-24T12:00:23;14.10;99.90
27797;DHT22;15177;50.844;4.412;2023-04-24T12:02:49;13.70;99.90
27797;DHT22;15177;50.844;4.412;2023-04-24T12:05:22;13.80;99.90
27797;DHT22;15177;50.844;4.412;2023-04-24T12:07:48;13.90;99.90
27797;DHT22;15177;50.844;4.412;2023-04-24T12:10:19;14.00;99.90
27797;DHT22;15177;50.844;4.412;2023-04-24T12:12:45;14.00;99.90
27797;DHT22;15177;50.844;4.412;2023-04-24T12:15:12;14.00;99.90
27797;DHT22;15177;50.844;4.412;2023-04-24T12:17:41;14.10;99.90
27797;DHT22;15177;50.844;4.412;2023-04-24T12:20:08;14.00;99.90
27797;DHT22;15177;50.844;4.412;2023-04-24T12:22:51;14.20;99.90
27797;DHT22;15177;50.844;4.412;2023-04-24T12:25:20;14.30;99.90
27797;DHT22;15177;50.844;4.412;2023-04-24T12:27:47;14.50;99.90
27797;DHT22;15177;50.844;4.412;2023-04-24T12:30:17;14.60;99.90
27797;DHT22;15177;50.844;4.412;2023-04-24T12:32:45;14.60;99.90
27797;DHT22;15177;50.844;4.412;2023-04-24T12:35:11;14.50;99.90
27797;DHT22;15177;50.844;4.412;2023-04-24T12:37:36;14.40;99.90
27797;DHT22;15177;50.844;4.412;2023-04-24T12:40:07;14.50;99.90
27797;DHT22;15177;50.844;4.412;2023-04-24T12:42:43;14.50;99.90
27797;DHT22;15177;50.844;4.412;2023-04-24T12:45:09;14.30;99.90
27797;DHT22;15177;50.844;4.412;2023-04-24T12:47:39;14.40;99.90
27797;DHT22;15177;50.844;4.412;2023-04-24T12:50:11;14.60;99.90
27797;DHT22;15177;50.844;4.412;2023-04-24T12:52:37;14.80;99.90
27797;DHT22;15177;50.844;4.412;2023-04-24T12:55:05;14.60;99.90
27797;DHT22;15177;50.844;4.412;2023-04-24T12:57:34;14.40;99.90
27797;DHT22;15177;50.844;4.412;2023-04-24T13:00:00;14.20;99.90
27797;DHT22;15177;50.844;4.412;2023-04-24T13:02:28;14.10;99.90
27797;DHT22;15177;50.844;4.412;2023-04-24T13:04:54;14.20;99.90
27797;DHT22;15177;50.844;4.412;2023-04-24T13:07:21;14.20;99.90
27797;DHT22;15177;50.844;4.412;2023-04-24T13:09:48;14.30;99.90
27797;DHT22;15177;50.844;4.412;2023-04-24T13:12:14;14.40;99.90
27797;DHT22;15177;50.844;4.412;2023-04-24T13:14:40;14.40;99.90
27797;DHT22;15177;50.844;4.412;2023-04-24T13:17:05;14.70;99.90
27797;DHT22;15177;50.844;4.412;2023-04-24T13:19:36;14.80;99.90
27797;DHT22;15177;50.844;4.412;2023-04-24T13:22:02;15.10;99.90
27797;DHT22;15177;50.844;4.412;2023-04-24T13:24:28;15.20;99.90
27797;DHT22;15177;50.844;4.412;2023-04-24T13:26:54;15.10;99.90
27797;DHT22;15177;50.844;4.412;2023-04-24T13:29:19;15.20;99.90
27797;DHT22;15177;50.844;4.412;2023-04-24T13:31:49;14.80;99.90
27797;DHT22;15177;50.844;4.412;2023-04-24T13:37:20;14.60;99.90
27797;DHT22;15177;50.844;4.412;2023-04-24T13:39:46;14.50;99.90
27797;DHT22;15177;50.844;4.412;2023-04-24T13:42:12;14.70;99.90
27797;DHT22;15177;50.844;4.412;2023-04-24T13:44:38;14.90;99.90
27797;DHT22;15177;50.844;4.412;2023-04-24T13:47:03;15.00;99.90
27797;DHT22;15177;50.844;4.412;2023-04-24T13:49:29;15.00;99.90
27797;DHT22;15177;50.844;4.412;2023-04-24T13:51:55;14.90;99.90
27797;DHT22;15177;50.844;4.412;2023-04-24T13:54:21;14.90;99.90
27797;DHT22;15177;50.844;4.412;2023-04-24T13:56:49;15.00;99.90
27797;DHT22;15177;50.844;4.412;2023-04-24T13:59:14;14.90;99.90
27797;DHT22;15177;50.844;4.412;2023-04-24T14:01:40;14.90;99.90
27797;DHT22;15177;50.844;4.412;2023-04-24T14:04:06;14.90;99.90
27797;DHT22;15177;50.844;4.412;2023-04-24T14:06:31;14.90;99.90
27797;DHT22;15177;50.844;4.412;2023-04-24T14:08:57;15.00;99.90
27797;DHT22;15177;50.844;4.412;2023-04-24T14:11:23;14.90;99.90
27797;DHT22;15177;50.844;4.412;2023-04-24T14:13:49;14.90;99.90
27797;DHT22;15177;50.844;4.412;2023-04-24T14:16:19;15.10;99.90
27797;DHT22;15177;50.844;4.412;2023-04-24T14:18:45;14.90;99.90
27797;DHT22;15177;50.844;4.412;2023-04-24T14:21:11;14.70;99.90
27797;DHT22;15177;50.844;4.412;2023-04-24T14:23:36;14.50;99.90
27797;DHT22;15177;50.844;4.412;2023-04-24T14:26:02;14.50;99.90
27797;DHT22;15177;50.844;4.412;2023-04-24T14:28:29;14.40;99.90
27797;DHT22;15177;50.844;4.412;2023-04-24T14:30:55;14.40;99.90
27797;DHT22;15177;50.844;4.412;2023-04-24T14:33:20;14.50;99.90
27797;DHT22;15177;50.844;4.412;2023-04-24T14:35:46;14.40;99.90
27797;DHT22;15177;50.844;4.412;2023-04-24T14:38:14;14.50;99.90
27797;DHT22;15177;50.844;4.412;2023-04-24T14:40:40;14.30;99.90
27797;DHT22;15177;50.844;4.412;2023-04-24T14:43:07;14.10;99.90
27797;DHT22;15177;50.844;4.412;2023-04-24T14:45:36;14.00;99.90
27797;DHT22;15177;50.844;4.412;2023-04-24T14:48:04;14.00;99.90
27797;DHT22;15177;50.844;4.412;2023-04-24T14:50:30;14.10;99.90
27797;DHT22;15177;50.844;4.412;2023-04-24T14:52:56;14.10;99.90
27797;DHT22;15177;50.844;4.412;2023-04-24T14:55:23;14.10;99.90
27797;DHT22;15177;50.844;4.412;2023-04-24T14:57:49;14.00;99.90
27797;DHT22;15177;50.844;4.412;2023-04-24T15:00:18;14.10;99.90
27797;DHT22;15177;50.844;4.412;2023-04-24T15:02:45;14.10;99.90
27797;DHT22;15177;50.844;4.412;2023-04-24T15:05:11;14.10;99.90
27797;DHT22;15177;50.844;4.412;2023-04-24T15:07:37;14.10;99.90
27797;DHT22;15177;50.844;4.412;2023-04-24T15:10:04;14.20;99.90
27797;DHT22;15177;50.844;4.412;2023-04-24T15:12:30;14.20;99.90
27797;DHT22;15177;50.844;4.412;2023-04-24T15:14:57;14.20;99.90
27797;DHT22;15177;50.844;4.412;2023-04-24T15:17:22;14.20;99.90
27797;DHT22;15177;50.844;4.412;2023-04-24T15:19:49;14.30;99.90
27797;DHT22;15177;50.844;4.412;2023-04-24T15:22:15;14.30;99.90
27797;DHT22;15177;50.844;4.412;2023-04-24T15:24:42;14.30;99.90
27797;DHT22;15177;50.844;4.412;2023-04-24T15:27:11;14.30;99.90
27797;DHT22;15177;50.844;4.412;2023-04-24T15:29:37;14.20;99.90
27797;DHT22;15177;50.844;4.412;2023-04-24T15:32:04;14.00;99.90
27797;DHT22;15177;50.844;4.412;2023-04-24T15:34:31;13.90;99.90
27797;DHT22;15177;50.844;4.412;2023-04-24T15:36:57;13.90;99.90
27797;DHT22;15177;50.844;4.412;2023-04-24T15:39:23;14.00;99.90
27797;DHT22;15177;50.844;4.412;2023-04-24T15:41:52;14.00;99.90
27797;DHT22;15177;50.844;4.412;2023-04-24T15:44:21;14.00;99.90